Tiempo atmosférico en la estación meteorológica de Villardeciervos, Zamora (850 m.)



Fecha
DESCASC
Temp. máxima en grados centígrados (hora)
DESCASC
Temp. mínima en grados centígrados (hora)
DESCASC
Temp. media en grados centígrados
DESCASC
Racha de viento máxima en m/sg (hora)
DESCASC
Velocidad máxima media en intervalos de 10 minutos(hora)
DESCASC
Precipitaciones diarias en mm
DESCASC
Precipitaciones de 00:00 a 06:00 en mm
DESCASC
Precipitaciones de 06:00 a 12:00 en mm
DESCASC
Precipitaciones de 12:00 a 18:00 en mm
DESCASC
Precipitaciones de 18:00 a 24:00 en mm
DESCASC
23-06-2019 24.2 (14:30) 12.9 (07:20) 18.6 12.22 (12:00) 5.28 (13:00) 0.2 0 0 0 0.2
22-06-2019 28.4 (17:00) 6.7 (07:00) 17.5 11.94 (16:20) 5 (17:20) 0 0 0 0 0
21-06-2019 25.1 (20:20) 6.4 (06:30) 15.8 6.94 (20:20) 2.78 (20:20) 0 0 0 0 0
20-06-2019 24 (18:20) 7.3 (00:00) 15.7 11.39 (22:00) 6.11 (22:00) 0 0 0 0 0
19-06-2019 -- (--) -- (--) -- -- (--) -- (--) -- -- 0 0 0
18-06-2019 -- (--) -- (--) -- -- (--) -- (--) -- 0 0 0 --
17-06-2019 25.9 (14:30) 5.3 (00:00) 15.6 12.5 (14:10) 5.83 (12:50) 0 0 0 0 0
16-06-2019 26.9 (17:20) 3.2 (00:00) 15 9.72 (18:20) 4.17 (15:30) 0 0 0 0 0
15-06-2019 22.3 (18:30) 3.8 (00:00) 13 9.17 (16:40) 4.72 (01:40) 0 0 0 0 0
14-06-2019 19.5 (15:40) 0.1 (00:00) 9.8 13.89 (16:00) 6.39 (18:20) 0 0 0 0 0
13-06-2019 20.1 (16:40) 0.9 (00:00) 10.5 10.56 (15:10) 5.56 (17:30) 0 0 0 0 0
12-06-2019 20 (17:20) 0.6 (00:00) 10.3 10.56 (15:30) 4.72 (18:40) 0 0 0 0 0
11-06-2019 20.5 (17:00) 6.3 (00:00) 13.4 10.83 (12:10) 5.28 (11:30) 0 0 0 0 0
10-06-2019 22.3 (16:30) 1.7 (00:00) 12 11.11 (20:30) 6.11 (20:30) 0 0 0 0 0
09-06-2019 20.9 (15:20) 4.7 (00:00) 12.8 11.94 (16:30) 6.39 (16:30) 0 0 0 0 0
08-06-2019 21.7 (16:30) -0.2 (00:00) 10.8 7.5 (14:20) 3.33 (16:40) 0 0 0 0 0
07-06-2019 16.6 (18:00) 5.2 (00:00) 10.9 13.33 (11:10) 7.22 (11:20) 0 0 0 0 0
06-06-2019 17.8 (16:00) 2.3 (00:00) 10 17.22 (19:40) 8.06 (16:20) 11.8 0 0 0.6 11.2
05-06-2019 16.4 (14:00) 6.3 (00:00) 11.3 13.33 (13:20) 7.5 (13:20) 0 0 0 0 0
04-06-2019 17.5 (18:50) 10.2 (00:00) 13.8 13.89 (12:20) 8.06 (12:30) 0.4 0 0 0.4 0
03-06-2019 26.3 (17:30) 13.6 (00:00) 19.9 13.89 (15:40) 6.67 (15:50) 0 0 0 0 0
02-06-2019 28.2 (15:50) 8.3 (00:00) 18.3 10.83 (16:50) 5.56 (14:00) 0 0 0 0 0
01-06-2019 31.3 (16:00) 8.5 (00:00) 19.9 11.67 (17:20) 4.72 (17:40) 0 0 0 0 0
31-05-2019 32.1 (17:50) 7.6 (00:00) 19.8 5.28 (18:50) 2.5 (18:40) 0 0 0 0 0
30-05-2019 29.2 (18:10) 4.6 (00:00) 16.9 6.94 (18:30) 3.06 (18:30) 0 0 0 0 0
29-05-2019 25 (18:40) 2.4 (00:00) 13.7 7.78 (14:30) 3.61 (14:30) 0 0 0 0 0
28-05-2019 25.5 (17:20) 3.4 (00:00) 14.5 10.83 (19:20) 5 (20:00) 0 0 0 0 0

Gráficas

Temp. máximas Temp. mínimas Temp. medias Precipitaciones Rachas de viento máximas Velocidades máximas media en intervalos de 10 minutos

Datos horarios

Fecha y hora oficial Temperatura (ºC) Velocidad del viento (km/h) Dirección del viento Racha (km/h) Dirección de racha Precipitación (mm) Presión (hPa) Tendencia (hPa) Humedad (%)
2019-06-26 23:00:00 18.6 3 Sur 7 Sur 0 920.3 0.5 66
2019-06-26 22:00:00 22.4 5 Sudoeste 9 Oeste 0 920 0.5 48
2019-06-26 21:00:00 26.4 7 Oeste 17 Sudoeste 0 919.9 0.3 33
2019-06-26 20:00:00 27 10 Sudoeste 30 Sudoeste 0 919.8 -0.2 32
2019-06-26 19:00:00 26.9 13 Sur 35 Sudoeste 0 919.5 -0.6 32
2019-06-26 18:00:00 26.7 13 Sur 44 Sudoeste 0 919.6 -0.7 32
2019-06-26 17:00:00 26.9 11 Sur 46 Sur 0 920 -0.7 33
2019-06-26 16:00:00 26.1 17 Sur 39 Sur 0 920.1 -0.7 36
2019-06-26 15:00:00 25 18 Sur 48 Sudeste 0 920.3 0 40
2019-06-26 14:00:00 24.6 17 Sur 42 Sudoeste 0 920.7 0.8 47
2019-06-26 13:00:00 23.5 21 Sudoeste 41 Sudoeste 0 920.8 1 49
2019-06-26 12:00:00 23.5 20 Sur 39 Sudoeste 0 920.3 0.9 50
2019-06-26 11:00:00 22.4 15 Sur 33 Sudoeste 0 919.9 0.9 55
2019-06-26 10:00:00 20.2 4 Este 9 Este 0 919.8 1 68
2019-06-26 09:00:00 17.2 0 Calma 4 Norte 0 919.4 0.8 80
2019-06-26 08:00:00 12.7 0 Calma 4 Sudeste 0 919 0.5 93
2019-06-26 07:00:00 10.9 3 Sudeste 6 Sur 0 918.8 0 91
2019-06-26 06:00:00 11.2 2 Oeste 6 Sudeste 0 918.6 -0.4 91
2019-06-26 05:00:00 11.8 3 Sudeste 6 Sudeste 0 918.5 -0.9 91
2019-06-26 04:00:00 12 3 Sudeste 6 Sur 0 918.8 -1.1 89
2019-06-26 03:00:00 13.1 2 Noroeste 5 Noroeste 0 919 -1 88
2019-06-26 02:00:00 13.9 3 Sur 7 Sudoeste 0 919.4 -0.4 88
2019-06-26 01:00:00 13.9 4 Sur 5 Sudeste 0 919.9 0.2 87
2019-06-26 00:00:00 14.8 4 Sur 8 Sudoeste 0 920 0.3 84
2019-06-25 23:00:00 16.1 5 Sur 8 Sudoeste 0 919.8 -0.1 80
2019-06-25 22:00:00 19 0 Calma 11 Oeste 0 919.7 -0.2 70
2019-06-25 21:00:00 22.2 5 Noroeste 14 Oeste 0 919.7 -0.5 55
2019-06-25 20:00:00 22.9 3 Oeste 14 Sudoeste 0 919.9 -0.7 50
2019-06-25 19:00:00 21.2 8 Noroeste 17 Noroeste 0 919.9 -1 63
2019-06-25 18:00:00 21.6 6 Oeste 11 Noroeste 0 920.2 -1.2 55
2019-06-25 17:00:00 21.3 4 Norte 18 Sur 0 920.6 -0.7 65
2019-06-25 16:00:00 19.9 2 Este 8 Nordeste 0 920.9 -0.2 68
2019-06-25 15:00:00 17.4 3 Sudoeste 13 Sur 2.4 921.4 0.4 77
2019-06-25 14:00:00 18.6 3 Sudoeste 10 Sudoeste 0 921.3 0.6 68
2019-06-25 13:00:00 18 5 Nordeste 19 Este 0 921.1 0.2 76
2019-06-25 12:00:00 16.3 6 Este 12 Este 0 921 0.3 79
2019-06-25 11:00:00 15.3 4 Nordeste 9 Nordeste 0 920.7 0.3 84
2019-06-25 10:00:00 13.7 2 Nordeste 5 Oeste 0 920.9 0.6 87
2019-06-25 09:00:00 13.1 2 Noroeste 5 Sudoeste 0.4 920.7 0.8 90
2019-06-25 08:00:00 12.2 2 Sur 5 Sudeste 0 920.4 0.5 92
2019-06-25 07:00:00 11.9 3 Sur 5 Sudeste 0 920.3 0.4 92
2019-06-25 06:00:00 11.8 0 Calma 5 Sur 0 919.9 -0.4 91
2019-06-25 05:00:00 11.9 3 Sur 7 Sur 0 919.9 -0.7 91
2019-06-25 04:00:00 12.3 3 Noroeste 6 Oeste 0 919.9 -0.6 91
2019-06-25 03:00:00 12.2 2 Noroeste 8 Sur 0 920.3 0.1 92
2019-06-25 02:00:00 11.8 4 Sur 10 Sur 0 920.6 0.3 91
2019-06-25 01:00:00 11.8 4 Sur 9 Sudoeste 0 920.5 0.5 92
2019-06-25 00:00:00 12 0 Calma 9 Noroeste 0 920.2 0.2 89
2019-06-24 23:00:00 12.8 3 Sudeste 9 Sudoeste 0 920.3 0.6 88
2019-06-24 22:00:00 13.2 2 Sur 9 Sudoeste 0 920 0.4 88
2019-06-24 21:00:00 13.6 6 Sur 21 Oeste 0.2 920 1.6 86
2019-06-24 20:00:00 13.2 5 Oeste 18 Sudoeste 0.2 919.7 0.1 89
2019-06-24 19:00:00 13.3 5 Sudoeste 20 Sudoeste 0.4 919.6 0.6 88
2019-06-24 18:00:00 13.5 7 Sudeste 14 Sudoeste 2.8 918.4 -0.6 89
2019-06-24 17:00:00 13.7 5 Oeste 10 Oeste 3.2 919.6 0.8 88
2019-06-24 16:00:00 14.1 3 Sur 11 Oeste 3.4 919 0.2 86
2019-06-24 15:00:00 14.7 2 Noroeste 12 Sudeste 2 919 0.6 85
2019-06-24 14:00:00 14.6 5 Sur 19 Sudoeste 2.6 918.8 0.9 84
2019-06-24 13:00:00 15.1 9 Sur 19 Sur 0.8 918.8 1.2 81
2019-06-24 12:00:00 16.3 9 Sur 19 Sudoeste 0.4 918.4 0.7 80
2019-06-24 11:00:00 16.3 6 Sur 16 Sudoeste 0 917.9 0.3 81
2019-06-24 10:00:00 16.1 2 Oeste 12 Sur 0.4 917.6 0.3 86
2019-06-24 09:00:00 15.6 6 Noroeste 15 Noroeste 1.2 917.7 0.5 91
2019-06-24 08:00:00 15.4 3 Oeste 12 Sudoeste 4.4 917.6 0.1 88
2019-06-24 07:00:00 15.4 5 Sudoeste 12 Este 0.4 917.3 -0.3 91
2019-06-24 06:00:00 15.5 4 Sur 8 Sudoeste 0.6 917.2 -0.3 90
2019-06-24 05:00:00 15.7 4 Sur 7 Sur 0.2 917.5 -0.2 89
2019-06-24 04:00:00 15.8 5 Sudoeste 12 Sur 0.2 917.6 -0.2 87
2019-06-24 03:00:00 15.8 6 Sudoeste 10 Oeste 0.2 917.5 -0.4 87
2019-06-24 02:00:00 15.9 4 Sur 14 Sudoeste 0 917.7 0.2 86
2019-06-24 01:00:00 16.4 4 Sudoeste 12 Sudoeste 0.2 917.8 0.4 83
2019-06-24 00:00:00 16.3 6 Sudoeste 13 Sudoeste 0 917.9 0.7 84
2019-06-23 23:00:00 16.7 7 Sudoeste 16 Oeste 0.2 917.5 0.2 82
2019-06-23 22:00:00 17.5 10 Oeste 20 Oeste 0 917.4 0.4 79
2019-06-23 21:00:00 18.5 13 Oeste 26 Oeste 0 917.2 0.2 74
2019-06-23 20:00:00 19.2 11 Oeste 28 Noroeste 0 917.3 0.3 70
2019-06-23 19:00:00 20.4 16 Noroeste 30 Oeste 0 917 -0.1 65
2019-06-23 18:00:00 22.3 18 Oeste 33 Oeste 0 917 -0.2 55
2019-06-23 17:00:00 23.4 13 Sudoeste 27 Sudoeste 0 917 -0.2 46
2019-06-23 16:00:00 22.2 15 Sudoeste 30 Oeste 0 917.1 0 47
2019-06-23 15:00:00 22 14 Sudoeste 36 Sudoeste 0 917.2 0.4 48
2019-06-23 14:00:00 23.6 19 Sur 44 Sudoeste 0 917.2 0.3 38
2019-06-23 13:00:00 22.1 19 Sur 39 Sudoeste 0 917.1 0.3 40
2019-06-23 12:00:00 22.7 18 Sur 44 Sur 0 916.8 0.2 32
2019-06-23 11:00:00 21.1 12 Sur 26 Sur 0 916.9 0.5 43
2019-06-23 10:00:00 18.2 3 Nordeste 9 Sudeste 0 916.8 0.2 49
2019-06-23 09:00:00 14.7 3 Sur 6 Sur 0 916.6 -0.2 62
2019-06-23 08:00:00 13.2 3 Este 8 Sudeste 0 916.4 -0.5 61
2019-06-23 07:00:00 13.4 2 Nordeste 15 Oeste 0 916.6 -0.2 57
2019-06-23 06:00:00 14.3 8 Oeste 21 Sudoeste 0 916.8 0.6 51
2019-06-23 05:00:00 14.6 7 Sudoeste 27 Oeste 0 916.9 0.7 47
2019-06-23 04:00:00 16.3 13 Oeste 30 Oeste 0 916.8 0.1 38
2019-06-23 03:00:00 17 5 Oeste 14 Noroeste 0 916.2 -0.9 39
2019-06-23 02:00:00 17.3 7 Oeste 13 Sudoeste 0 916.2 -1 38
2019-06-23 01:00:00 18.1 7 Sudoeste 21 Oeste 0 916.7 0 38
2019-06-23 00:00:00 19.2 6 Sudoeste 21 Oeste 0 917.1 0.8 41
2019-06-22 23:00:00 20.4 11 Oeste 26 Oeste 0 917.2 1.1 40
2019-06-22 22:00:00 22.1 12 Oeste 26 Oeste 0 916.7 0.7 35
2019-06-22 21:00:00 24.3 10 Sudoeste 21 Sudoeste 0 916.3 0 26
2019-06-22 20:00:00 25.4 9 Sudoeste 23 Sudoeste 0 916.1 -0.5 22
2019-06-22 19:00:00 25.7 9 Sudoeste 32 Sudoeste 0 916 -1 21
2019-06-22 18:00:00 26.6 10 Sur 39 Sur 0 916.3 -1.4 25
2019-06-22 17:00:00 28.3 13 Sudoeste 43 Sudoeste 0 916.6 -1.8 23
2019-06-22 16:00:00 26.5 12 Sudoeste 34 Sudoeste 0 917 -2.2 25
2019-06-22 15:00:00 26.5 15 Sur 35 Sur 0 917.7 -1.8 26
2019-06-22 14:00:00 25.3 15 Sur 39 Sudoeste 0 918.4 -1.6 29
2019-06-22 13:00:00 22.7 4 Noroeste 19 Norte 0 919.2 -1.7 40
2019-06-22 12:00:00 21.6 6 Norte 17 Norte 0 919.5 -1 42
2019-06-22 11:00:00 17.6 6 Este 18 Nordeste 0 920 -0.9 56
2019-06-22 10:00:00 14.4 4 Este 10 Este 0 920.9 -0.2 70
2019-06-22 09:00:00 11.7 4 Este 9 Sudeste 0 920.5 -0.3 82
2019-06-22 08:00:00 9.1 3 Sur 8 Sudeste 0 920.9 -0.2 88
2019-06-22 07:00:00 6.8 3 Sur 5 Sudeste 0 921.1 -0.4 87
2019-06-22 06:00:00 7.6 3 Sur 5 Sudoeste 0 920.8 -0.6 83
2019-06-22 05:00:00 8.4 3 Sur 5 Sudoeste 0 921.1 -0.1 84
2019-06-22 04:00:00 9.1 2 Sur 8 Nordeste 0 921.5 0.2 79
2019-06-22 03:00:00 10.8 2 Nordeste 8 Noroeste 0 921.4 0.2 74
2019-06-22 02:00:00 12 3 Noroeste 9 Norte 0 921.2 0.2 67
2019-06-22 01:00:00 12.7 2 Sudeste 8 Sur 0 921.3 1 63
2019-06-22 00:00:00 15.1 4 Sudoeste 12 Sur 0 921.2 1 53
2019-06-21 23:00:00 16.1 6 Sudoeste 12 Nordeste 0 921 1.3 51
2019-06-21 22:00:00 19.5 6 Sudoeste 13 Sudoeste 0 920.3 0.5 40
2019-06-21 21:00:00 24 5 Sudoeste 25 Sudeste 0 920.2 0 27
2019-06-21 20:00:00 24.8 6 Sur 21 Sur 0 919.7 -0.7 25
2019-06-21 19:00:00 24.2 8 Sudeste 17 Sur 0 919.8 -1 28
2019-06-21 18:00:00 24.1 4 Noroeste 19 Sur 0 920.2 -1 27
2019-06-21 17:00:00 24.4 5 Sur 21 Sudeste 0 920.4 -1.1 28
2019-06-21 16:00:00 23.8 5 Norte 19 Este 0 920.8 -0.9 29
2019-06-21 15:00:00 22.4 7 Nordeste 18 Norte 0 921.2 -0.6 33
2019-06-21 14:00:00 22.6 7 Nordeste 18 Este 0 921.5 -0.3 34
2019-06-21 13:00:00 20.9 7 Norte 16 Oeste 0 921.7 -0.3 40
2019-06-21 12:00:00 19.7 6 Sudeste 17 Sudeste 0 921.8 0.2 42
2019-06-21 11:00:00 18 7 Nordeste 19 Este 0 921.8 0.5 53
2019-06-21 10:00:00 15.4 8 Este 17 Este 0 922 1.3 66
2019-06-21 09:00:00 11.7 3 Sudeste 8 Sudoeste 0 921.6 1.2 92
2019-06-21 08:00:00 8.7 3 Sur 6 Sur 0 921.3 0.6 93
2019-06-21 07:00:00 7 2 Sudeste 8 Sur 0 920.7 -0.3 92
2019-06-21 06:00:00 7.5 0 Calma 3 Sudeste 0 920.4 -0.6 89
2019-06-21 05:00:00 8.4 3 Sur 6 Sur 0 920.7 -0.1 90
2019-06-21 04:00:00 9.1 4 Sur 5 Sudeste 0 921 0 88
2019-06-21 03:00:00 9.7 4 Sur 6 Sur 0 921 0.2 86
2019-06-21 02:00:00 12 3 Este 9 Nordeste 0 920.8 0.7 83
2019-06-21 01:00:00 12.8 3 Nordeste 19 Este 0 921 2.1 80
2019-06-21 00:00:00 13.2 5 Nordeste 24 Este 0 920.8 2.8 78
2019-06-20 23:00:00 14.3 14 Este 34 Este 0 920.1 2.7 70
2019-06-20 22:00:00 15.7 22 Este 41 Nordeste 0 918.9 2 63
2019-06-20 21:00:00 18.2 7 Nordeste 22 Nordeste 0 918 1.2 51
2019-06-20 20:00:00 20.4 11 Nordeste 22 Nordeste 0 917.4 0 44
2019-06-20 19:00:00 21.9 11 Oeste 23 Oeste 0 916.9 -1.1 37
2019-06-20 18:00:00 23.3 10 Oeste 28 Noroeste 0 916.8 -1.8 35
2019-06-20 17:00:00 23.3 7 Sudoeste 24 Sudoeste 0 917.4 -1.6 38
2019-06-20 16:00:00 22.6 10 Oeste 19 Sudoeste 0 918 -1.4 37
2019-06-20 15:00:00 21.2 8 Sudoeste 20 Noroeste 0 918.6 -1.1 46
2019-06-20 14:00:00 20.7 5 Oeste 14 Noroeste 0 919 -0.6 49
2019-06-20 13:00:00 20.4 4 Nordeste 12 Este 0 919.4 -0.1 48
2019-06-20 12:00:00 17.4 3 Norte 16 Este 0 919.7 -0.1 63
2019-06-20 11:00:00 15.5 4 Nordeste 12 Este 0 919.6 0 67
2019-06-20 10:00:00 14.5 5 Nordeste 12 Norte 0 919.5 -0.1 70
2019-06-20 09:00:00 11.3 0 Calma 6 Este 0 919.8 0.4 82
2019-06-20 08:00:00 10 2 Nordeste 8 Sudeste 0 919.6 0.1 85
2019-06-20 07:00:00 9 3 Sur 10 Sudeste 0 919.6 0.1 86
2019-06-20 06:00:00 8.6 2 Sur 6 Sudeste 0 919.4 -0.1 85
2019-06-20 05:00:00 8.1 3 Sudeste 6 Sudeste 0 919.5 -0.3 84
2019-06-20 04:00:00 7.8 0 Calma 5 Sudeste 0 919.5 -0.1 85
2019-06-20 03:00:00 8.4 5 Sudeste 8 Sudeste 0 919.5 -0.2 79
2019-06-20 02:00:00 10.5 4 Sur 18 Oeste 0 919.8 0.4 75
2019-06-20 01:00:00 14.1 11 Oeste 21 Noroeste 0 919.6 0.4 63
2019-06-20 00:00:00 14 6 Oeste 14 Sudoeste 0 919.7 0.8 61
2019-06-19 23:00:00 15.1 10 Sudoeste 21 Oeste 0 919.4 0.6 57
2019-06-19 22:00:00 17 9 Oeste 28 Noroeste 0 919.2 0.6 52
2019-06-19 21:00:00 19.9 12 Oeste 28 Oeste 0 918.9 0.2 45
2019-06-19 20:00:00 20.2 12 Oeste 29 Sudoeste 0 918.8 0.1 44
2019-06-19 19:00:00 20.3 15 Sudoeste 39 Oeste 0 918.6 -0.2 45
2019-06-19 18:00:00 22 18 Oeste 46 Noroeste 0 918.7 -0.4 39
2019-06-19 17:00:00 20.4 17 Sudoeste 37 Oeste 0 918.7 -0.5 47
2019-06-19 16:00:00 20.7 18 Sudoeste 36 Sudoeste 0 918.8 -0.4 49
2019-06-19 15:00:00 18.4 14 Sudoeste 33 Sudoeste 0 919.1 0.2 62
2019-06-19 14:00:00 18.6 15 Sudoeste 30 Sudoeste 0 919.2 0.6 63
2019-06-19 13:00:00 17.3 15 Oeste 30 Oeste 0 919.2 0.6 62
2019-06-19 12:00:00 16.9 15 Oeste 31 Oeste 0 918.9 0.7 64
2019-06-19 11:00:00 15.8 13 Sudoeste 25 Sudoeste 0 918.6 0.8 73
2019-06-19 10:00:00 15.1 10 Sudoeste 21 Sudoeste 0 918.6 1.1 77
2019-06-19 09:00:00 14 5 Oeste 24 Sudoeste 0 918.2 0.8 84
2019-06-19 08:00:00 13.3 10 Sudoeste 30 Sudoeste 0 917.8 0.3 86
2019-06-19 07:00:00 13.2 10 Sudoeste 33 Sudoeste 0 917.5 0.1 87
2019-06-19 06:00:00 13.2 11 Sudoeste 25 Sudoeste 0 917.4 0.2 87
2019-06-19 05:00:00 13.3 6 Sudoeste 23 Oeste 0 917.5 0.2 87
2019-06-19 04:00:00 13.4 13 Sudoeste 26 Sudoeste 0.6 917.4 -- 89
2019-06-19 03:00:00 13.7 14 Sudoeste 31 Sudoeste 0.2 917.2 -- 87
2019-06-19 02:00:00 13.9 15 Sudoeste -- -- -- 917.3 -- 84
2019-06-19 01:00:00 -- -- -- -- -- -- -- -- --
2019-06-19 00:00:00 -- -- -- -- -- -- -- -- --
2019-06-18 23:00:00 -- -- -- -- -- -- -- -- --
2019-06-18 22:00:00 -- -- -- -- -- -- -- -- --
2019-06-18 21:00:00 -- -- -- -- -- -- -- -- --
2019-06-18 20:00:00 -- -- -- -- -- -- -- -- --
2019-06-18 19:00:00 16 17 Sudoeste 38 Sudoeste 0.2 917.1 0.6 73
2019-06-18 18:00:00 18.8 19 Sudoeste 49 Sudoeste 0 916.4 -0.1 50
2019-06-18 17:00:00 19.9 19 Sur 51 Sur 0 916 -1.4 44
2019-06-18 16:00:00 19.2 15 Sur 38 Sur 0 916.5 -0.3 52
2019-06-18 15:00:00 18.1 6 Sudoeste 30 Oeste 0 916.5 0.1 57
2019-06-18 14:00:00 16.5 14 Oeste 36 Sudoeste 0 917.4 1.1 68
2019-06-18 13:00:00 18.2 18 Oeste 40 Sudoeste 0 916.8 0.2 48
2019-06-18 12:00:00 20.5 20 Sudoeste 36 Sudoeste 0 916.4 0 36
2019-06-18 11:00:00 19.2 9 Sur 26 Sur 0 916.3 0.2 35
2019-06-18 10:00:00 17.3 10 Sur 26 Sudoeste 0 916.6 0.5 44
2019-06-18 09:00:00 14.7 9 Sudoeste 22 Sudoeste 0 916.4 0.4 49
2019-06-18 08:00:00 7.4 4 Norte 9 Norte 0 916.1 0.1 81
2019-06-18 07:00:00 5.2 2 Sur 7 Sur 0 916.1 -0.4 84
2019-06-18 06:00:00 5.2 0 Calma 10 Sudeste 0 916 -0.9 81
2019-06-18 05:00:00 6.1 2 Sur 7 Sudeste 0 916 -1.6 81
2019-06-18 04:00:00 7.7 3 Sur 6 Sudeste 0 916.5 -1.5 76
2019-06-18 03:00:00 8.9 4 Sur 6 Sudeste 0 916.9 -1.4 74
2019-06-18 02:00:00 11.2 4 Sur 6 Sur 0 917.6 -1.4 65
2019-06-18 01:00:00 13 4 Sur 7 Sur 0 918 -1.1 61
2019-06-18 00:00:00 15.1 5 Sur 9 Sudeste 0 918.3 -0.3 55
2019-06-17 23:00:00 17.1 6 Oeste 32 Sudoeste 0 919 -0.1 43
2019-06-17 22:00:00 18.8 13 Oeste 27 Oeste 0 919.1 0.5 29
2019-06-17 21:00:00 19.1 7 Sudoeste 15 Oeste 0 918.6 -0.2 33
2019-06-17 20:00:00 20.1 9 Sudoeste 19 Sudoeste 0 919.1 0.1 30
2019-06-17 19:00:00 20.9 9 Oeste 19 Sudoeste 0 918.6 -0.5 28
2019-06-17 18:00:00 21.7 9 Sudoeste 23 Oeste 0 918.8 -0.5 27
2019-06-17 17:00:00 22.8 11 Oeste 26 Oeste 0 919 -0.5 24
2019-06-17 16:00:00 24.1 12 Sudoeste 38 Sudoeste 0 919.1 -0.6 21
2019-06-17 15:00:00 24.5 15 Sudoeste 45 Sudoeste 0 919.3 -0.4 17
2019-06-17 14:00:00 25.2 15 Sudoeste 44 Sur 0 919.5 -0.7 15
2019-06-17 13:00:00 24.8 16 Sur 42 Sudoeste 0 919.7 -0.7 16
2019-06-17 12:00:00 23.8 13 Sur 36 Sur 0 919.7 -0.9 20
2019-06-17 11:00:00 21.6 11 Sur 28 Sur 0 920.2 -0.5 30
2019-06-17 10:00:00 17.7 4 Este 9 Nordeste 0 920.4 -0.1 48
2019-06-17 09:00:00 13.6 0 Calma 4 Norte 0 920.6 0 59
2019-06-17 08:00:00 7.3 2 Sudeste 6 Sudeste 0 920.7 0.1 79
2019-06-17 07:00:00 5.4 2 Sudeste 6 Sur 0 920.5 0 80
2019-06-17 06:00:00 6.7 3 Sudeste 8 Sur 0 920.6 0.1 76
2019-06-17 05:00:00 7.2 4 Sur 12 Noroeste 0 920.6 0 74
2019-06-17 04:00:00 7.7 0 Calma 6 Sudeste 0 920.5 -0.3 72
2019-06-17 03:00:00 9.4 2 Sur 3 Oeste 0 920.5 -0.3 66
2019-06-17 02:00:00 11 0 Calma 8 Sudoeste 0 920.6 0 57
2019-06-17 01:00:00 13.2 4 Sudoeste 11 Sudoeste 0 920.8 0.5 47
2019-06-17 00:00:00 14 4 Norte 9 Norte 0 920.8 0.7 47
2019-06-16 23:00:00 15.8 6 Sur 9 Sudoeste 0 920.6 0.4 40
2019-06-16 22:00:00 19.1 7 Sudoeste 13 Oeste 0 920.3 0.4 34
2019-06-16 21:00:00 21.9 7 Oeste 19 Sudoeste 0 920.1 0 26
2019-06-16 20:00:00 23.1 12 Sudoeste 23 Sur 0 920.2 -0.1 21
2019-06-16 19:00:00 25.5 12 Sudoeste 35 Sur 0 919.9 -0.8 18
2019-06-16 18:00:00 25.7 9 Sur 25 Sudoeste 0 920.1 -1 20
2019-06-16 17:00:00 25.9 9 Sur 26 Sur 0 920.3 -1.4 17
2019-06-16 16:00:00 25.5 6 Sur 26 Sudoeste 0 920.7 -1.5 21
2019-06-16 15:00:00 24.9 13 Sur 31 Sudeste 0 921.1 -1.6 20
2019-06-16 14:00:00 24.1 9 Sur 26 Sur 0 921.7 -1.4 23
2019-06-16 13:00:00 22.5 6 Sudeste 17 Este 0 922.2 -1.2 31
2019-06-16 12:00:00 20.1 6 Este 16 Este 0 922.7 -0.5 38
2019-06-16 11:00:00 17.1 6 Nordeste 15 Este 0 923.1 0.3 49
2019-06-16 10:00:00 14.6 6 Este 15 Este 0 923.4 0.6 59
2019-06-16 09:00:00 11.8 4 Este 9 Este 0 923.2 0.4 70
2019-06-16 08:00:00 6 0 Calma 5 Sudoeste 0 922.8 0 88
2019-06-16 07:00:00 3.4 3 Sudoeste 4 Sudoeste 0 922.8 -0.3 89
2019-06-16 06:00:00 3.6 2 Sudeste 4 Sur 0 922.8 -0.1 86
2019-06-16 05:00:00 4.5 5 Sur 7 Sur 0 922.8 -0.3 86
2019-06-16 04:00:00 4.9 0 Calma 5 Este 0 923.1 -0.1 80
2019-06-16 03:00:00 6.8 2 Este 9 Sudoeste 0 922.9 -0.1 75
2019-06-16 02:00:00 8.6 6 Sur 9 Sur 0 923.1 0.5 73
2019-06-16 01:00:00 11.2 3 Sur 8 Norte 0 923.2 1.1 64
2019-06-16 00:00:00 14.1 4 Sudoeste 23 Sudoeste 0 923 1 52
2019-06-15 23:00:00 15.2 12 Sudoeste 21 Sudoeste 0 922.6 0.7 46
2019-06-15 22:00:00 16.6 10 Sudoeste 19 Sudoeste 0 922.1 0.3 40
2019-06-15 21:00:00 19.8 10 Sudoeste 23 Sudoeste 0 922 -0.1 31
2019-06-15 20:00:00 20.7 13 Sudoeste 27 Oeste 0 921.9 -0.4 29
2019-06-15 19:00:00 21.7 11 Sudoeste 26 Oeste 0 921.8 -0.6 26
2019-06-15 18:00:00 21.7 10 Sudoeste 30 Sudoeste 0 922.1 -0.6 22
2019-06-15 17:00:00 22 8 Sudoeste 33 Sur 0 922.3 -0.6 26
2019-06-15 16:00:00 21.1 11 Sur 28 Sudoeste 0 922.4 -0.5 27
2019-06-15 15:00:00 20 12 Sudoeste 23 Oeste 0 922.7 -0.4 31
2019-06-15 14:00:00 19.3 14 Sudoeste 31 Sudoeste 0 922.9 -0.2 30
2019-06-15 13:00:00 18.5 5 Oeste 19 Sudoeste 0 922.9 -0.1 34
2019-06-15 12:00:00 17.4 5 Noroeste 14 Oeste 0 923.1 0.4 42
2019-06-15 11:00:00 15.2 3 Sudeste 13 Norte 0 923.1 0.9 50
2019-06-15 10:00:00 12.6 4 Sur 9 Sudeste 0 923 1.3 61
2019-06-15 09:00:00 10.2 4 Norte 8 Norte 0 922.7 1.3 70
2019-06-15 08:00:00 5 3 Sudeste 6 Sudeste 0 922.2 1.2 86
2019-06-15 07:00:00 4.4 3 Sur 11 Sur 0 921.7 0.9 87
2019-06-15 06:00:00 5.4 6 Sur 10 Sur 0 921.4 0.6 85
2019-06-15 05:00:00 4.9 6 Sur 12 Sur 0 921 0.5 85
2019-06-15 04:00:00 5.8 5 Sur 10 Sudeste 0 920.8 0.5 83
2019-06-15 03:00:00 8 3 Este 25 Sudoeste 0 920.8 0.8 75
2019-06-15 02:00:00 8.9 15 Sudoeste 26 Sudoeste 0 920.5 1 72
2019-06-15 01:00:00 9.5 13 Sudoeste 27 Sudoeste 0 920.3 1.6 71
2019-06-15 00:00:00 10.1 17 Sudoeste 27 Sudoeste 0 920 2.1 66
2019-06-14 23:00:00 10.5 12 Sudoeste 24 Sudoeste 0 919.5 2.5 63
2019-06-14 22:00:00 12.4 13 Sudoeste 35 Sudoeste 0 918.7 2.4 56
2019-06-14 21:00:00 15.3 16 Sudoeste 40 Sudoeste 0 917.9 1.6 46
2019-06-14 20:00:00 16.8 21 Sudoeste 44 Oeste 0 917 0.8 40
2019-06-14 19:00:00 18.1 21 Oeste 43 Sudoeste 0 916.3 0.1 32
2019-06-14 18:00:00 18.8 22 Sudoeste 43 Sudoeste 0 916.3 0.5 30
2019-06-14 17:00:00 19.3 19 Sudoeste 41 Sudoeste 0 916.2 0.4 28
2019-06-14 16:00:00 18.7 21 Sudoeste 50 Sudoeste 0 916.2 0.6 32
2019-06-14 15:00:00 18.9 17 Sudoeste 35 Sudoeste 0 915.8 0.2 34
2019-06-14 14:00:00 18.9 12 Oeste 33 Sudoeste 0 915.8 0.3 32
2019-06-14 13:00:00 18.1 14 Sudoeste 29 Sudoeste 0 915.6 -0.2 38
2019-06-14 12:00:00 18 6 Norte 14 Norte 0 915.6 -0.1 42
2019-06-14 11:00:00 15 5 Noroeste 12 Oeste 0 915.5 -0.2 54
2019-06-14 10:00:00 12.3 3 Norte 9 Oeste 0 915.8 0.3 64
2019-06-14 09:00:00 8.9 5 Noroeste 10 Norte 0 915.7 0 72
2019-06-14 08:00:00 2.6 4 Sur 8 Sudeste 0 915.7 0.3 91
2019-06-14 07:00:00 0.5 4 Sur 5 Sur 0 915.5 0.3 88
2019-06-14 06:00:00 1.8 0 Calma 5 Sudoeste 0 915.7 0.6 82
2019-06-14 05:00:00 3.2 3 Oeste 6 Sudeste 0 915.4 0.3 82
2019-06-14 04:00:00 3.3 3 Sur 10 Sudeste 0 915.2 -0.3 79
2019-06-14 03:00:00 4.3 4 Sur 7 Sur 0 915.1 -0.3 78
2019-06-14 02:00:00 5.8 4 Oeste 9 Sudoeste 0 915.1 0.3 72
2019-06-14 01:00:00 8.4 5 Sur 9 Sudoeste 0 915.5 1.3 62
2019-06-14 00:00:00 9.5 4 Sur 15 Oeste 0 915.4 1.4 58
2019-06-13 23:00:00 12.7 7 Oeste 15 Oeste 0 914.8 1.2 47
2019-06-13 22:00:00 14.9 7 Oeste 22 Oeste 0 914.2 0.8 37
2019-06-13 21:00:00 17.8 11 Oeste 26 Oeste 0 914 0.6 30
2019-06-13 20:00:00 18.7 13 Oeste 36 Oeste 0 913.6 0.2 29
2019-06-13 19:00:00 19.5 15 Oeste 36 Sudoeste 0 913.4 0 27
2019-06-13 18:00:00 19.7 16 Sudoeste 37 Oeste 0 913.4 0 27
2019-06-13 17:00:00 19.6 19 Sudoeste 36 Sudoeste 0 913.4 -0.3 24
2019-06-13 16:00:00 19.6 15 Sudoeste 38 Sudoeste 0 913.4 -0.5 29
2019-06-13 15:00:00 18.7 17 Sur 36 Sudoeste 0 913.4 -0.6 30
2019-06-13 14:00:00 18.4 11 Sudoeste 35 Sudoeste 0 913.7 -0.3 33
2019-06-13 13:00:00 17.3 15 Sudoeste 30 Sudoeste 0 913.9 -0.3 35
2019-06-13 12:00:00 16.6 7 Sudoeste 23 Sur 0 914 -0.3 40
2019-06-13 11:00:00 15.2 6 Este 15 Nordeste 0 914 -0.2 48
2019-06-13 10:00:00 12.3 4 Este 13 Sudeste 0 914.2 0.2 57
2019-06-13 09:00:00 9.3 2 Nordeste 5 Norte 0 914.3 0.4 69
2019-06-13 08:00:00 3.2 2 Este 4 Este 0 914.2 0.1 88
2019-06-13 07:00:00 1.2 4 Sur 5 Sur 0 914 -0.2 89
2019-06-13 06:00:00 1 3 Sur 6 Sudeste 0 913.9 -0.4 87
2019-06-13 05:00:00 2.6 0 Calma 6 Sur 0 914.1 -0.2 82
2019-06-13 04:00:00 3.9 4 Sudoeste 8 Sudoeste 0 914.2 -0.3 79
2019-06-13 03:00:00 4.1 4 Sudeste 8 Sudeste 0 914.3 -0.4 77
2019-06-13 02:00:00 5.6 2 Sur 10 Sur 0 914.3 -0.4 72
2019-06-13 01:00:00 7 5 Sudeste 13 Sudoeste 0 914.5 0.1 66
2019-06-13 00:00:00 9.2 5 Sur 18 Oeste 0 914.7 0.3 58
2019-06-12 23:00:00 11.5 4 Oeste 22 Oeste 0 914.7 0.4 50
2019-06-12 22:00:00 14.3 12 Oeste 22 Oeste 0 914.4 0 38
2019-06-12 21:00:00 17.5 13 Sudoeste 29 Sudoeste 0 914.4 -0.4 28
2019-06-12 20:00:00 19.1 12 Oeste 26 Oeste 0 914.3 -0.8 25
2019-06-12 19:00:00 19 15 Sudoeste 29 Sudoeste 0 914.4 -1.3 25
2019-06-12 18:00:00 19.3 5 Sudoeste 32 Oeste 0 914.8 -1.4 26
2019-06-12 17:00:00 19.5 7 Sudoeste 27 Sudoeste 0 915.1 -1.9 24
2019-06-12 16:00:00 18.7 13 Sudoeste 38 Sudoeste 0 915.7 -1.8 25
2019-06-12 15:00:00 18.1 10 Sudoeste 32 Sudoeste 0 916.2 -1.7 26
2019-06-12 14:00:00 16.3 10 Sur 30 Sudoeste 0 917 -1.1 32
2019-06-12 13:00:00 14.9 12 Sudoeste 28 Sudoeste 0 917.5 -0.8 35
2019-06-12 12:00:00 14.5 10 Oeste 21 Sudoeste 0 917.9 -0.6 39
2019-06-12 11:00:00 13.7 7 Sur 19 Sur 0 918.1 -0.1 41
2019-06-12 10:00:00 11.9 4 Nordeste 11 Nordeste 0 918.3 0.2 47
2019-06-12 09:00:00 8.4 2 Norte 8 Norte 0 918.5 0.4 61
2019-06-12 08:00:00 4 3 Norte 12 Sudoeste 0 918.2 -0.3 74
2019-06-12 07:00:00 1.1 4 Sudoeste 10 Sur 0 918.1 -0.5 82
2019-06-12 06:00:00 1 3 Sur 9 Sudeste 0 918.1 -0.5 82
2019-06-12 05:00:00 2.8 3 Norte 11 Sur 0 918.5 -0.4 75
2019-06-12 04:00:00 4.4 7 Sur 14 Sudoeste 0 918.6 -0.4 71
2019-06-12 03:00:00 4.9 5 Sur 17 Sudoeste 0 918.6 -0.6 69
2019-06-12 02:00:00 5.5 7 Sur 15 Sur 0 918.9 -0.5 66
2019-06-12 01:00:00 6.3 4 Sur 10 Sudoeste 0 919 0 62
2019-06-12 00:00:00 7.7 3 Sur 10 Este 0 919.2 0.2 56
2019-06-11 23:00:00 10 5 Este 10 Nordeste 0 919.4 0.6 49
2019-06-11 22:00:00 12.3 6 Norte 27 Norte 0 919 0.3 41
2019-06-11 21:00:00 16 13 Norte 30 Norte 0 919 0.3 31
2019-06-11 20:00:00 18.5 13 Norte 30 Norte 0 918.8 0 28
2019-06-11 19:00:00 20.2 10 Norte 24 Norte 0 918.7 -0.3 23
2019-06-11 18:00:00 19.9 14 Norte 31 Norte 0 918.7 -0.5 25
2019-06-11 17:00:00 20.2 14 Norte 29 Noroeste 0 918.8 -0.2 25
2019-06-11 16:00:00 19.8 10 Norte 32 Norte 0 919 -0.1 24
2019-06-11 15:00:00 19 14 Norte 31 Norte 0 919.2 0.1 26
2019-06-11 14:00:00 17.4 13 Norte 33 Norte 0 919 0.1 29
2019-06-11 13:00:00 17 15 Norte 39 Noroeste 0 919.1 0.4 32
2019-06-11 12:00:00 16.3 15 Norte 37 Norte 0 919.1 0.5 32
2019-06-11 11:00:00 15.4 16 Norte 34 Norte 0 918.9 0.5 34
2019-06-11 10:00:00 12.8 7 Noroeste 23 Nordeste 0 918.7 0.5 44
2019-06-11 09:00:00 11.8 6 Norte 14 Este 0 918.6 0.7 51
2019-06-11 08:00:00 8.1 2 Sur 7 Este 0 918.4 0.4 74
2019-06-11 07:00:00 6.7 0 Calma 8 Sur 0 918.2 0.1 79
2019-06-11 06:00:00 6.6 0 Calma 11 Sur 0 917.9 -0.1 76
2019-06-11 05:00:00 6.8 6 Sur 13 Sudoeste 0 918 -0.4 79
2019-06-11 04:00:00 8 3 Sudeste 7 Sudeste 0 918.1 -0.6 73
2019-06-11 03:00:00 9.9 2 Oeste 22 Oeste 0 918 -0.8 65
2019-06-11 02:00:00 11.1 12 Oeste 24 Oeste 0 918.4 -0.2 61
2019-06-11 01:00:00 11.6 8 Oeste 18 Noroeste 0 918.7 0.3 57
2019-06-11 00:00:00 12.8 9 Noroeste 24 Oeste 0 918.8 0.7 53
2019-06-10 23:00:00 13.5 9 Oeste 26 Oeste 0 918.6 0.9 48
2019-06-10 22:00:00 15 11 Oeste 28 Oeste 0 918.4 0.6 39
2019-06-10 21:00:00 16.8 13 Oeste 40 Oeste 0 918.1 0 32
2019-06-10 20:00:00 18.5 17 Oeste 34 Oeste 0 917.7 -1.2 28
2019-06-10 19:00:00 21.4 17 Oeste 37 Oeste 0 917.8 -1.5 18
2019-06-10 18:00:00 22.2 15 Sudoeste 33 Sudoeste 0 918.1 -2.1 23
2019-06-10 17:00:00 20.7 13 Oeste 31 Sudoeste 0 918.9 -1.9 26
2019-06-10 16:00:00 21.6 9 Oeste 26 Sudoeste 0 919.3 -2.3 29
2019-06-10 15:00:00 19.8 5 Norte 31 Oeste 0 920.2 -1.7 32
2019-06-10 14:00:00 19.2 6 Oeste 22 Sur 0 920.8 -1.3 34
2019-06-10 13:00:00 17.9 9 Oeste 22 Sudoeste 0 921.6 -0.8 37
2019-06-10 12:00:00 15.3 6 Sudoeste 17 Sudoeste 0 921.9 -0.6 46
2019-06-10 11:00:00 14.6 5 Sur 14 Sudeste 0 922.1 -0.5 50
2019-06-10 10:00:00 12.1 3 Este 8 Sudeste 0 922.4 0.1 61
2019-06-10 09:00:00 8.6 2 Sudeste 5 Sudeste 0 922.5 0.4 78
2019-06-10 08:00:00 3.4 2 Sudeste 5 Sur 0 922.6 0.3 91
2019-06-10 07:00:00 2 4 Sur 6 Sudeste 0 922.3 -0.1 91
2019-06-10 06:00:00 2.3 2 Este 5 Sur 0 922.1 -0.8 88
2019-06-10 05:00:00 2.9 5 Sur 6 Este 0 922.3 -0.9 85
2019-06-10 04:00:00 5.3 2 Sur 6 Sudeste 0 922.4 -0.7 79
2019-06-10 03:00:00 7.4 3 Sudeste 8 Sudeste 0 922.9 0.5 74
2019-06-10 02:00:00 8.6 4 Sur 10 Sudeste 0 923.2 1.3 73
2019-06-10 01:00:00 9.3 6 Sudeste 17 Este 0 923.1 2.1 70
2019-06-10 00:00:00 9.8 6 Sudoeste 10 Este 0 922.4 1.7 66
2019-06-09 23:00:00 13.2 5 Oeste 25 Oeste 0 921.9 1.8 52
2019-06-09 22:00:00 14.8 9 Oeste 21 Oeste 0 921 1.3 48
2019-06-09 21:00:00 17.6 13 Oeste 37 Oeste 0 920.7 1.2 39
2019-06-09 20:00:00 19.8 17 Oeste 35 Oeste 0 920.1 0.6 32
2019-06-09 19:00:00 20.1 17 Oeste 37 Sudoeste 0 919.7 0.4 32
2019-06-09 18:00:00 20.2 19 Oeste 40 Sudoeste 0 919.5 -0.1 31
2019-06-09 17:00:00 19.7 20 Oeste 43 Sudoeste 0 919.5 -0.5 34
2019-06-09 16:00:00 20.6 19 Sudoeste 40 Sudoeste 0 919.3 -1.1 32
2019-06-09 15:00:00 20.7 12 Oeste 35 Sur 0 919.6 -0.9 32
2019-06-09 14:00:00 19.8 10 Sudoeste 27 Oeste 0 920 -0.7 28
2019-06-09 13:00:00 18.7 13 Oeste 29 Oeste 0 920.4 -0.3 31
2019-06-09 12:00:00 17.4 12 Sudoeste 23 Sudoeste 0 920.5 -0.3 31
2019-06-09 11:00:00 16.4 7 Sur 17 Sudoeste 0 920.7 0.2 44
2019-06-09 10:00:00 14.7 3 Este 10 Noroeste 0 920.7 0.4 60
2019-06-09 09:00:00 11.7 5 Norte 9 Norte 0 920.8 0.5 72
2019-06-09 08:00:00 6.3 0 Calma 7 Sudeste 0 920.5 0 88
2019-06-09 07:00:00 5.1 2 Sudeste 7 Sudeste 0 920.3 -0.4 86
2019-06-09 06:00:00 5.6 0 Calma 6 Sur 0 920.3 -0.7 84
2019-06-09 05:00:00 6.4 0 Calma 7 Sudeste 0 920.5 -0.5 81
2019-06-09 04:00:00 8.1 3 Sudoeste 6 Sudoeste 0 920.7 -0.5 75
2019-06-09 03:00:00 9.8 0 Calma 9 Sudeste 0 921 -0.4 68
2019-06-09 02:00:00 10.4 7 Sudeste 12 Sudeste 0 921 -0.2 66
2019-06-09 01:00:00 12 5 Sur 9 Sudeste 0 921.2 0.7 56
2019-06-09 00:00:00 13.3 3 Sudeste 9 Sudeste 0 921.4 1.1 55
2019-06-08 23:00:00 15.3 5 Oeste 17 Oeste 0 921.2 0.9 44
2019-06-08 22:00:00 16.6 7 Oeste 14 Oeste 0 920.5 0 41
2019-06-08 21:00:00 18.1 7 Noroeste 18 Noroeste 0 920.3 -0.6 37
2019-06-08 20:00:00 20.1 8 Noroeste 17 Noroeste 0 920.3 -1 30
2019-06-08 19:00:00 20.6 10 Sudoeste 22 Oeste 0 920.5 -1.3 25
2019-06-08 18:00:00 21 9 Oeste 21 Sudoeste 0 920.9 -1.4 26
2019-06-08 17:00:00 21.4 5 Sudoeste 25 Sur 0 921.3 -1.7 25
2019-06-08 16:00:00 20.8 8 Sudoeste 27 Sudoeste 0 921.8 -2 25
2019-06-08 15:00:00 20.3 5 Sur 27 Sudeste 0 922.3 -1.9 30
2019-06-08 14:00:00 18.4 6 Nordeste 18 Nordeste 0 923 -1.8 32
2019-06-08 13:00:00 17 6 Este 21 Este 0 923.8 -1.4 41
2019-06-08 12:00:00 14.7 9 Este 20 Nordeste 0 924.2 -1.1 45
2019-06-08 11:00:00 12.3 8 Nordeste 18 Este 0 924.8 -0.4 56
2019-06-08 10:00:00 10.2 4 Este 17 Este 0 925.2 0.2 64
2019-06-08 09:00:00 7.5 5 Este 11 Este 0 925.3 0.5 75
2019-06-08 08:00:00 1.1 0 Calma 8 Sudeste 0 925.2 0.5 92
2019-06-08 07:00:00 -0.2 3 Sudeste 6 Sudeste 0 925 0.4 90
2019-06-08 06:00:00 0.8 3 Este 6 Sudeste 0 924.8 0.1 89
2019-06-08 05:00:00 1.4 3 Sur 6 Sudeste 0 924.7 -0.1 88
2019-06-08 04:00:00 1.6 4 Oeste 9 Sudeste 0 924.6 -0.2 87
2019-06-08 03:00:00 3.6 5 Sur 12 Sudoeste 0 924.7 0.1 80
2019-06-08 02:00:00 2.9 4 Sur 8 Sudeste 0 924.8 0.7 83
2019-06-08 01:00:00 4.9 4 Sur 10 Este 0 924.8 1.4 76
2019-06-08 00:00:00 6.1 5 Sudeste 13 Noroeste 0 924.6 1.7 74
2019-06-07 23:00:00 9.6 5 Oeste 14 Oeste 0 924.1 1.5 58
2019-06-07 22:00:00 11.1 7 Sudoeste 24 Noroeste 0 923.4 1.3 52
2019-06-07 21:00:00 14.2 8 Oeste 28 Oeste 0 922.9 1.1 42
2019-06-07 20:00:00 15.1 14 Sudoeste 32 Oeste 0 922.6 1.3 39
2019-06-07 19:00:00 14.5 13 Oeste 37 Oeste 0 922.1 1.1 40
2019-06-07 18:00:00 16.3 16 Sudoeste 37 Sudoeste 0 921.8 1.1 32
2019-06-07 17:00:00 15.8 17 Sudoeste 38 Oeste 0 921.3 0.8 41
2019-06-07 16:00:00 16.1 18 Oeste 42 Sudoeste 0 921 1 38
2019-06-07 15:00:00 14.3 13 Oeste 41 Sudoeste 0 920.7 1.4 42
2019-06-07 14:00:00 14.3 14 Oeste 36 Sudoeste 0 920.5 2.1 41
2019-06-07 13:00:00 13.3 15 Oeste 39 Noroeste 0 920 2.2 47
2019-06-07 12:00:00 12.2 18 Oeste 48 Noroeste 0 919.3 2.4 45
2019-06-07 11:00:00 10.9 26 Oeste 46 Noroeste 0 918.4 2.4 48
2019-06-07 10:00:00 9.3 16 Oeste 33 Sudoeste 0 917.8 2.5 65
2019-06-07 09:00:00 8.2 14 Oeste 31 Oeste 0 916.9 2.2 72
2019-06-07 08:00:00 6.3 15 Sudoeste 34 Sudoeste 0 916 2.1 78
2019-06-07 07:00:00 5.4 16 Sudoeste 33 Oeste 0 915.3 2 81
2019-06-07 06:00:00 5.8 12 Sudoeste 36 Sudoeste 0 914.7 2.2 84
2019-06-07 05:00:00 6 17 Sudoeste 33 Sudoeste 0 913.9 1.7 82
2019-06-07 04:00:00 6.4 16 Sudoeste 40 Sudoeste 0 913.3 1.9 82
2019-06-07 03:00:00 6.7 15 Sudoeste 37 Sudoeste 0 912.5 1.5 83
2019-06-07 02:00:00 6.6 13 Sudoeste 29 Sudoeste 0 912.2 1.7 83
2019-06-07 01:00:00 6.6 12 Oeste 34 Oeste 0 911.4 2 83
2019-06-07 00:00:00 7.2 17 Sudoeste 41 Oeste 0 911 1.8 82
2019-06-06 23:00:00 7.8 18 Sudoeste 40 Sudoeste 0 910.5 2.2 84
2019-06-06 22:00:00 8.3 14 Oeste 39 Oeste 0.4 909.4 1.1 82
2019-06-06 21:00:00 8.9 15 Oeste 49 Sudoeste 6 909.2 0.5 85
2019-06-06 20:00:00 10.7 23 Sudoeste 62 Sur 2.4 908.3 -0.8 86
2019-06-06 19:00:00 10.9 20 Sur 47 Sudoeste 2.4 908.3 -1.6 84
2019-06-06 18:00:00 12.3 24 Sudoeste 59 Sur 0.6 908.7 -2.1 76
2019-06-06 17:00:00 13.9 19 Sudoeste 58 Sudoeste 0 909.1 -3 55
2019-06-06 16:00:00 16.9 26 Sudoeste 59 Sudoeste 0 909.9 -3.3 35
2019-06-06 15:00:00 15.5 24 Sudoeste 48 Sur 0 910.8 -3.1 39
2019-06-06 14:00:00 14.9 22 Sur 46 Sur 0 912.1 -2.5 42
2019-06-06 13:00:00 13.2 18 Sur 39 Sur 0 913.2 -2.1 45
2019-06-06 12:00:00 13.3 14 Sur 35 Sur 0 913.9 -1.8 44
2019-06-06 11:00:00 12.1 11 Sur 27 Sur 0 914.6 -1.7 54
2019-06-06 10:00:00 9.9 9 Sudoeste 20 Sudoeste 0 915.3 -1.1 61
2019-06-06 09:00:00 8.7 4 Sur 11 Sudoeste 0 915.7 -0.9 67
2019-06-06 08:00:00 4.9 4 Sur 14 Sur 0 916.3 -0.6 84
2019-06-06 07:00:00 3.8 8 Sur 14 Sudoeste 0 916.4 -0.9 84
2019-06-06 06:00:00 2.3 2 Norte 12 Sudoeste 0 916.6 -0.9 84
2019-06-06 05:00:00 3.2 5 Sudoeste 11 Sudoeste 0 916.9 -0.8 82
2019-06-06 04:00:00 3.7 2 Sudeste 16 Norte 0 917.3 -0.5 78
2019-06-06 03:00:00 5 4 Este 13 Sudoeste 0 917.5 -0.3 73
2019-06-06 02:00:00 5.7 6 Sudoeste 12 Sudoeste 0 917.7 0.1 68
2019-06-06 01:00:00 7.1 7 Sur 17 Sudoeste 0 917.8 0.6 62
2019-06-06 00:00:00 8.2 11 Sudoeste 20 Sudoeste 0 917.8 0.8 56
2019-06-05 23:00:00 10.1 11 Oeste 27 Oeste 0 917.6 0.7 48
2019-06-05 22:00:00 10.9 12 Oeste 28 Oeste 0 917.2 0.4 50
2019-06-05 21:00:00 13.6 9 Noroeste 28 Oeste 0 917 0.5 42
2019-06-05 20:00:00 12.8 13 Oeste 35 Oeste 0 916.9 0.1 44
2019-06-05 19:00:00 13.8 20 Oeste 40 Oeste 0 916.8 0.3 39
2019-06-05 18:00:00 15.1 18 Oeste 37 Oeste 0 916.5 -0.3 32
2019-06-05 17:00:00 15.1 19 Noroeste 44 Oeste 0 916.8 -0.2 39
2019-06-05 16:00:00 15.6 19 Oeste 42 Noroeste 0 916.5 -0.5 31
2019-06-05 15:00:00 15 18 Oeste 45 Noroeste 0 916.8 0 38
2019-06-05 14:00:00 16.2 20 Noroeste 48 Noroeste 0 917 0.6 32
2019-06-05 13:00:00 15.4 23 Noroeste 43 Noroeste 0 917 0.8 38
2019-06-05 12:00:00 13.9 17 Noroeste 44 Oeste 0 916.8 1.2 43
2019-06-05 11:00:00 13.9 13 Noroeste 35 Noroeste 0 916.4 1.3 45
2019-06-05 10:00:00 12 21 Noroeste 39 Noroeste 0 916.2 1.5 48
2019-06-05 09:00:00 10.3 15 Noroeste 28 Noroeste 0 915.6 1.3 57
2019-06-05 08:00:00 7.8 13 Oeste 26 Sudoeste 0 915.1 0.9 64
2019-06-05 07:00:00 6.7 9 Oeste 23 Oeste 0 914.7 0.2 69
2019-06-05 06:00:00 6.8 10 Oeste 22 Sudoeste 0 914.3 -0.4 68
2019-06-05 05:00:00 6.8 11 Sudoeste 19 Sudoeste 0 914.2 -0.5 70
2019-06-05 04:00:00 6.8 8 Sudoeste 19 Sudoeste 0 914.5 -0.2 71
2019-06-05 03:00:00 8.1 10 Oeste 21 Oeste 0 914.7 -0.1 68
2019-06-05 02:00:00 8.3 8 Oeste 24 Oeste 0 914.7 0.1 65
2019-06-05 01:00:00 9.6 13 Oeste 28 Oeste 0 914.7 0.5 60
2019-06-05 00:00:00 10.3 16 Oeste 30 Oeste 0 914.8 0.8 59
2019-06-04 23:00:00 11.4 12 Oeste 23 Oeste 0 914.6 0.5 55
2019-06-04 22:00:00 13 8 Oeste 27 Oeste 0 914.2 0 49
2019-06-04 21:00:00 15.3 11 Oeste 35 Oeste 0 914 -0.9 39
2019-06-04 20:00:00 17 18 Oeste 40 Noroeste 0 914.1 -0.9 34
2019-06-04 19:00:00 17 17 Oeste 37 Noroeste 0 914.2 -0.9 42
2019-06-04 18:00:00 16.6 22 Sudoeste 39 Sudoeste 0 914.9 -0.3 49
2019-06-04 17:00:00 16 17 Sudoeste 36 Oeste 0 915 -0.4 56
2019-06-04 16:00:00 15.9 16 Oeste 40 Oeste 0 915.1 -0.4 64
2019-06-04 15:00:00 15.1 19 Sudoeste 34 Sudoeste 0.4 915.2 0.1 74
2019-06-04 14:00:00 15.2 18 Sudoeste 34 Sudoeste 0 915.4 0 70
2019-06-04 13:00:00 15.4 22 Sudoeste 50 Sudoeste 0 915.5 -0.3 71
2019-06-04 12:00:00 16.4 18 Sudoeste 37 Sudoeste 0 915.1 -0.3 60
2019-06-04 11:00:00 14.1 14 Sudoeste 32 Oeste 0 915.4 0.3 68
2019-06-04 10:00:00 12.8 13 Sudoeste 40 Oeste 0 915.8 0.8 75
2019-06-04 09:00:00 12 14 Sudoeste 35 Sudoeste 0 915.4 0.6 74
2019-06-04 08:00:00 11.1 14 Sudoeste 43 Oeste 0 915.1 0.1 74
2019-06-04 07:00:00 10.3 12 Oeste 35 Oeste 0 915 -0.1 76
2019-06-04 06:00:00 10.4 6 Sudoeste 33 Sudoeste 0 914.8 -1 78
2019-06-04 05:00:00 11.1 7 Oeste 39 Sudoeste 0 915 -1.4 80
2019-06-04 04:00:00 11.5 22 Sudoeste 42 Sudoeste 0 915.1 -2 80
2019-06-04 03:00:00 12.2 17 Sudoeste 32 Oeste 0 915.8 -1.6 77
2019-06-04 02:00:00 13.1 15 Sudoeste 24 Sudoeste 0 916.4 -1.1 76
2019-06-04 01:00:00 14.2 12 Sudoeste 22 Sudoeste 0 917.1 -0.2 72
2019-06-04 00:00:00 15.7 9 Oeste 21 Oeste 0 917.4 0.1 66
2019-06-03 23:00:00 16.9 4 Sudoeste 26 Oeste 0 917.5 0.3 63
2019-06-03 22:00:00 18.9 11 Oeste 28 Oeste 0 917.3 0 58
2019-06-03 21:00:00 22.2 13 Oeste 32 Oeste 0 917.3 -0.4 49
2019-06-03 20:00:00 24.5 14 Oeste 39 Oeste 0 917.2 -1 42
2019-06-03 19:00:00 25.7 15 Sudoeste 40 Sudoeste 0 917.3 -1.2 34
2019-06-03 18:00:00 25.3 18 Sudoeste 42 Oeste 0 917.7 -1.4 33
2019-06-03 17:00:00 25.7 17 Oeste 42 Oeste 0 918.2 -1.3 32
2019-06-03 16:00:00 25.3 22 Sudoeste 50 Sur 0 918.5 -1.5 34
2019-06-03 15:00:00 25.1 16 Sudoeste 36 Sudoeste 0 919.1 -1.2 38
2019-06-03 14:00:00 24.7 14 Sudoeste 31 Sur 0 919.5 -0.9 38
2019-06-03 13:00:00 23 14 Sudoeste 32 Sur 0 920 -0.6 42
2019-06-03 12:00:00 22.3 13 Sudoeste 24 Sur 0 920.3 -0.3 41
2019-06-03 11:00:00 21 10 Sudoeste 19 Sudoeste 0 920.4 0 44
2019-06-03 10:00:00 19.9 5 Oeste 14 Oeste 0 920.6 0.5 38
2019-06-03 09:00:00 17 4 Noroeste 10 Noroeste 0 920.6 0.6 46
2019-06-03 08:00:00 14.1 2 Norte 9 Este 0 920.4 0.6 52
2019-06-03 07:00:00 13.9 4 Este 11 Sudeste 0 920.1 0.1 46
2019-06-03 06:00:00 14.5 3 Sudeste 9 Este 0 920 -0.3 46
2019-06-03 05:00:00 15.9 5 Sudeste 19 Sudoeste 0 919.8 -0.6 44
2019-06-03 04:00:00 16.7 4 Sudeste 26 Sudoeste 0 920 -0.9 43
2019-06-03 03:00:00 17 17 Sudoeste 32 Sudoeste 0 920.3 -0.9 42
2019-06-03 02:00:00 17.8 14 Sudoeste 31 Sudoeste 0 920.4 -0.6 36
2019-06-03 01:00:00 17.7 13 Sur 28 Sudoeste 0 920.9 0.1 39
2019-06-03 00:00:00 19 14 Sudoeste 25 Sudoeste 0 921.2 0.5 35
2019-06-02 23:00:00 20.3 12 Sudoeste 27 Oeste 0 921 0.4 34
2019-06-02 22:00:00 21.6 9 Oeste 23 Oeste 0 920.8 0 29
2019-06-02 21:00:00 23.2 9 Oeste 21 Oeste 0 920.7 -0.2 25
2019-06-02 20:00:00 24.3 13 Oeste 30 Oeste 0 920.6 -0.5 23
2019-06-02 19:00:00 25.7 15 Oeste 39 Oeste 0 920.8 -0.4 16
2019-06-02 18:00:00 27.5 13 Sudoeste 36 Sudoeste 0 920.9 -0.6 16
2019-06-02 17:00:00 28 17 Sudoeste 39 Sudoeste 0 921.1 -0.9 18
2019-06-02 16:00:00 27.5 19 Oeste 37 Sudoeste 0 921.2 -1.2 15
2019-06-02 15:00:00 27.3 15 Sudoeste 39 Oeste 0 921.5 -0.7 15
2019-06-02 14:00:00 27.2 20 Sudoeste 38 Sudoeste 0 922 -0.3 14
2019-06-02 13:00:00 26 14 Sudoeste 33 Sudoeste 0 922.4 0.3 19
2019-06-02 12:00:00 25.6 13 Sudoeste 29 Sudoeste 0 922.2 0.2 20
2019-06-02 11:00:00 23.7 10 Sudoeste 23 Sudoeste 0 922.3 0.4 26
2019-06-02 10:00:00 21.2 3 Norte 8 Norte 0 922.1 0.6 43
2019-06-02 09:00:00 15.2 4 Este 8 Sudeste 0 922 0.5 58
2019-06-02 08:00:00 9.3 3 Sur 8 Sudeste 0 921.9 0.3 72
2019-06-02 07:00:00 8.9 5 Sur 7 Sur 0 921.5 0.1 73
2019-06-02 06:00:00 9.7 3 Sur 7 Sur 0 921.5 -0.2 69
2019-06-02 05:00:00 10.1 2 Nordeste 4 Nordeste 0 921.6 -0.5 67
2019-06-02 04:00:00 11.7 2 Este 7 Sudeste 0 921.4 -0.8 61
2019-06-02 03:00:00 13.4 5 Sudeste 9 Sudeste 0 921.7 -0.7 54
2019-06-02 02:00:00 13.9 6 Sudeste 9 Sudeste 0 922.1 -0.2 53
2019-06-02 01:00:00 16.3 0 Calma 7 Oeste 0 922.2 0.5 47
2019-06-02 00:00:00 20 3 Este 23 Oeste 0 922.4 0.9 35
2019-06-01 23:00:00 22 6 Oeste 28 Oeste 0 922.3 0.8 28
2019-06-01 22:00:00 24.7 13 Oeste 26 Oeste 0 921.7 0.3 24
2019-06-01 21:00:00 27.9 13 Oeste 27 Oeste 0 921.5 -0.4 21
2019-06-01 20:00:00 30.2 8 Oeste 25 Sudoeste 0 921.5 -0.7 20
2019-06-01 19:00:00 30.6 12 Oeste 28 Sudoeste 0 921.4 -1.1 16
2019-06-01 18:00:00 30.9 14 Oeste 42 Oeste 0 921.9 -1.1 16
2019-06-01 17:00:00 30.9 12 Oeste 36 Sudoeste 0 922.2 -1.4 19
2019-06-01 16:00:00 31 8 Sur 29 Sudoeste 0 922.5 -1.5 19
2019-06-01 15:00:00 30.1 15 Sudoeste 34 Oeste 0 923 -1.3 16
2019-06-01 14:00:00 29.7 13 Sudoeste 34 Sudoeste 0 923.6 -0.9 17
2019-06-01 13:00:00 30.1 7 Nordeste 16 Nordeste 0 924 -0.6 22
2019-06-01 12:00:00 27.4 4 Noroeste 10 Norte 0 924.3 -0.2 32
2019-06-01 11:00:00 24.4 3 Nordeste 10 Nordeste 0 924.5 0.1 33
2019-06-01 10:00:00 21.6 3 Nordeste 14 Noroeste 0 924.6 0.5 42
2019-06-01 09:00:00 17.1 0 Calma 4 Norte 0 924.5 0.5 62
2019-06-01 08:00:00 10.9 0 Calma 3 Sudeste 0 924.4 0.4 73
2019-06-01 07:00:00 8.8 0 Calma 8 Nordeste 0 924.1 0 78
2019-06-01 06:00:00 9.1 3 Sur 6 Sur 0 924 -0.1 77
2019-06-01 05:00:00 10.7 4 Sur 6 Sur 0 924 -0.1 73
2019-06-01 04:00:00 11.7 2 Sudeste 6 Sur 0 924.1 -0.1 71
2019-06-01 03:00:00 12.9 5 Sur 19 Nordeste 0 924.1 -0.3 69
2019-06-01 02:00:00 14.3 4 Sur 12 Sur 0 924.1 -0.1 59
2019-06-01 01:00:00 15.4 6 Sur 13 Sudoeste 0 924.2 0.5 55
2019-06-01 00:00:00 20.1 8 Sudoeste 13 Sur 0 924.4 0.8 35
2019-05-31 23:00:00 20 6 Sudoeste 11 Sudoeste 0 924.2 0.7 40
2019-05-31 22:00:00 23.9 7 Sudoeste 11 Sudoeste 0 923.7 -0.2 29
2019-05-31 21:00:00 29.5 6 Sudoeste 9 Sudoeste 0 923.6 -0.5 21
2019-05-31 20:00:00 31.4 4 Norte 15 Noroeste 0 923.5 -1.2 17
2019-05-31 19:00:00 31.6 8 Norte 19 Norte 0 923.9 -1.2 16
2019-05-31 18:00:00 31.6 8 Noroeste 17 Oeste 0 924.1 -1.7 19
2019-05-31 17:00:00 31.4 8 Noroeste 17 Norte 0 924.7 -1.5 17
2019-05-31 16:00:00 30.5 8 Norte 17 Noroeste 0 925.1 -1.5 16
2019-05-31 15:00:00 29.7 6 Norte 16 Norte 0 925.8 -1.1 18
2019-05-31 14:00:00 29.2 6 Norte 17 Norte 0 926.2 -1.1 21
2019-05-31 13:00:00 27.5 4 Nordeste 15 Este 0 926.6 -0.9 24
2019-05-31 12:00:00 25.6 4 Nordeste 14 Este 0 926.9 -0.6 31
2019-05-31 11:00:00 22.8 3 Norte 13 Nordeste 0 927.3 -0.3 44
2019-05-31 10:00:00 20.5 4 Norte 8 Norte 0 927.5 0.1 52
2019-05-31 09:00:00 16.1 0 Calma 6 Sudeste 0 927.5 0.2 67
2019-05-31 08:00:00 9.5 2 Sudeste 5 Este 0 927.6 0.2 83
2019-05-31 07:00:00 7.7 0 Calma 5 Norte 0 927.4 -0.2 84
2019-05-31 06:00:00 8.4 3 Sur 4 Sur 0 927.3 -0.6 83
2019-05-31 05:00:00 8.5 3 Sur 5 Sudoeste 0 927.4 -0.5 80
2019-05-31 04:00:00 9.4 3 Sudoeste 5 Sudoeste 0 927.6 -0.2 77
2019-05-31 03:00:00 10.6 2 Sur 6 Sudoeste 0 927.9 0.4 72
2019-05-31 02:00:00 11.9 3 Sur 4 Sur 0 927.9 1 70
2019-05-31 01:00:00 14.1 5 Noroeste 8 Sudeste 0 927.8 1.6 64
2019-05-31 00:00:00 15.3 3 Este 10 Sudeste 0 927.5 1.5 56
2019-05-30 23:00:00 19.4 0 Calma 9 Sudoeste 0 926.9 1.1 40
2019-05-30 22:00:00 22.3 6 Sur 12 Sudeste 0 926.2 0 32
2019-05-30 21:00:00 27.2 6 Este 17 Este 0 926 -0.5 23
2019-05-30 20:00:00 28.3 8 Este 23 Este 0 925.8 -1.3 20
2019-05-30 19:00:00 28.8 9 Sudeste 25 Este 0 926.2 -1.2 18
2019-05-30 18:00:00 29.1 3 Noroeste 23 Sudeste 0 926.5 -1.4 19
2019-05-30 17:00:00 28.9 7 Nordeste 22 Este 0 927.1 -1.2 19
2019-05-30 16:00:00 28.4 7 Nordeste 22 Sudeste 0 927.4 -1.2 25
2019-05-30 15:00:00 26.9 9 Nordeste 21 Este 0 927.9 -1 24
2019-05-30 14:00:00 25.7 5 Este 20 Este 0 928.3 -1 25
2019-05-30 13:00:00 23.6 6 Este 17 Nordeste 0 928.6 -0.9 32
2019-05-30 12:00:00 21.8 4 Norte 14 Este 0 928.9 -0.4 42
2019-05-30 11:00:00 19.2 5 Nordeste 12 Este 0 929.3 0.1 44
2019-05-30 10:00:00 16.8 2 Sudeste 8 Este 0 929.5 0.3 53
2019-05-30 09:00:00 13.8 3 Norte 6 Norte 0 929.3 0.5 69
2019-05-30 08:00:00 7.3 0 Calma 4 Sur 0 929.2 0.6 89
2019-05-30 07:00:00 5 0 Calma 4 Noroeste 0 929.2 0.4 87
2019-05-30 06:00:00 6 2 Sudoeste 5 Sur 0 928.8 -0.1 84
2019-05-30 05:00:00 7 5 Sur 8 Sur 0 928.6 -0.5 83
2019-05-30 04:00:00 6.9 4 Sudeste 8 Sur 0 928.8 -0.4 81
2019-05-30 03:00:00 8.2 2 Sur 5 Sudeste 0 928.9 0.3 77
2019-05-30 02:00:00 10.7 3 Norte 6 Nordeste 0 929.1 1.6 70
2019-05-30 01:00:00 13.2 2 Noroeste 13 Norte 0 929.2 2.6 60
2019-05-30 00:00:00 14.1 6 Norte 12 Norte 0 928.6 2.3 57
2019-05-29 23:00:00 16.3 3 Norte 9 Este 0 927.5 1.4 51
2019-05-29 22:00:00 19.4 4 Sur 10 Sudeste 0 926.6 0.5 39
2019-05-29 21:00:00 23.3 8 Sudeste 25 Sudeste 0 926.3 0.1 30
2019-05-29 20:00:00 24.4 9 Sudeste 21 Este 0 926.1 -0.4 27
2019-05-29 19:00:00 24.8 5 Este 27 Sudeste 0 926.1 -0.7 26
2019-05-29 18:00:00 24.4 10 Sudeste 25 Nordeste 0 926.2 -0.9 27
2019-05-29 17:00:00 24 10 Este 27 Sudeste 0 926.5 -0.9 26
2019-05-29 16:00:00 23.2 9 Este 28 Norte 0 926.8 -0.7 27
2019-05-29 15:00:00 22.3 10 Este 28 Sudeste 0 927.1 -0.5 30
2019-05-29 14:00:00 21.1 12 Este 23 Este 0 927.4 -0.4 32
2019-05-29 13:00:00 19.8 7 Este 21 Nordeste 0 927.5 -0.6 34
2019-05-29 12:00:00 17.5 7 Este 26 Este 0 927.6 -0.3 42
2019-05-29 11:00:00 14.8 6 Este 16 Este 0 927.8 0.3 46
2019-05-29 10:00:00 12.8 5 Nordeste 14 Sudeste 0 928.1 0.9 56
2019-05-29 09:00:00 9.8 2 Nordeste 6 Este 0 927.9 1.1 67
2019-05-29 08:00:00 4.5 0 Calma 6 Sudeste 0 927.5 0.8 85
2019-05-29 07:00:00 3.4 3 Noroeste 6 Noroeste 0 927.2 0.8 85
2019-05-29 06:00:00 4.9 2 Norte 6 Oeste 0 926.8 0.4 81
2019-05-29 05:00:00 5.9 0 Calma 8 Este 0 926.7 0.5 77
2019-05-29 04:00:00 6.9 2 Sur 9 Este 0 926.4 0.2 72
2019-05-29 03:00:00 8 3 Sudeste 9 Nordeste 0 926.4 0.7 67
2019-05-29 02:00:00 9.3 3 Este 18 Este 0 926.2 1.1 61
2019-05-29 01:00:00 10 6 Sudeste 15 Este 0 926.2 2.1 57
2019-05-29 00:00:00 11.7 7 Nordeste 26 Nordeste 0 925.7 2.3 51
2019-05-28 23:00:00 13 6 Nordeste 28 Este 0 925.1 2.6 46
2019-05-28 22:00:00 15.3 11 Nordeste 36 Nordeste 0 924.1 2.3 38
2019-05-28 21:00:00 18.6 15 Nordeste 34 Este 0 923.4 1.9 30
2019-05-28 20:00:00 21 18 Este 39 Este 0 922.5 0.8 28
2019-05-28 19:00:00 23.5 15 Este 38 Nordeste 0 921.8 -0.1 24
2019-05-28 18:00:00 25.1 6 Sur 16 Norte 0 921.5 -0.6 23
2019-05-28 17:00:00 25 6 Noroeste 16 Norte 0 921.7 -0.7 25
2019-05-28 16:00:00 24.2 6 Norte 19 Noroeste 0 921.9 -0.6 25
2019-05-28 15:00:00 22 9 Noroeste 19 Oeste 0 922.1 -0.4 26
2019-05-28 14:00:00 21 4 Noroeste 22 Sudeste 0 922.4 -0.3 28
2019-05-28 13:00:00 18.6 10 Sudeste 22 Este 0 922.5 -0.2 32
2019-05-28 12:00:00 16.4 7 Este 18 Este 0 922.5 0 42
2019-05-28 11:00:00 14.6 5 Este 19 Nordeste 0 922.7 0.5 51
2019-05-28 10:00:00 12.2 9 Este 18 Nordeste 0 922.7 1.2 59
2019-05-28 09:00:00 10.2 3 Nordeste 8 Norte 0 922.5 1.6 70
2019-05-28 08:00:00 4.7 0 Calma 3 Oeste 0 922.2 1.4 84
2019-05-28 07:00:00 4 0 Calma 4 Norte 0 921.5 0.6 87
2019-05-28 06:00:00 4.4 0 Calma 4 Noroeste 0 920.9 0.3 80
2019-05-28 05:00:00 5.9 0 Calma 6 Sudeste 0 920.8 0.1 76
2019-05-28 04:00:00 7.6 0 Calma 8 Norte 0 920.9 0.3 67
2019-05-28 03:00:00 9.2 3 Norte 8 Este 0 920.6 0.3 61
2019-05-28 02:00:00 10.6 2 Nordeste 19 Nordeste 0 920.7 1.1 53
2019-05-28 01:00:00 12.3 10 Nordeste 28 Este 0 920.6 1.7 46
2019-05-28 00:00:00 13.6 9 Este 25 Este 0 920.3 2.2 48